< < Back
Terminal Aerodrome Forecast


Current Version              Previous Versions:   1  2  3  4  5  6  7  8  9  

Terminal Aerodrome Forecast

165
FTUS42 KJAX 221720
TAFJAX
TAF
KJAX 221720Z 2218/2318 03012KT P6SM SCT040 SCT100 BKN200
     FM230100 03006KT P6SM SCT030 SCT100 BKN200
     FM231400 06014G21KT P6SM SCT020 BKN040=



Latest METAR

805
SAUS80 KWBC 221900 RRA
MTRJAX
METAR KJAX 221856Z 07011KT 10SM FEW020 FEW045 SCT250 29/18 A3011 RMK AO2
SLP197 FU FEW020 T02890178


USA.gov is the U.S. government's official web portal to all federal, state and local government web resources and services.